createdAt,value
2022-12-23T00:01:39.333Z,99723.50
2022-12-23T00:06:40.871Z,99717.03
2022-12-23T00:12:02.307Z,99717.38
2022-12-23T00:17:09.334Z,99723.84
2022-12-23T00:22:41.737Z,99736.81
2022-12-23T00:27:43.312Z,99731.53
2022-12-23T00:32:44.812Z,99731.38
2022-12-23T00:37:46.279Z,99726.97
2022-12-23T00:42:53.452Z,99732.69
2022-12-23T00:48:13.309Z,99727.84
2022-12-23T00:53:14.776Z,99728.84
2022-12-23T00:58:20.266Z,99737.44
2022-12-23T01:03:40.271Z,99733.94
2022-12-23T01:08:41.845Z,99735.78
2022-12-23T01:13:43.322Z,99743.16
2022-12-23T01:18:44.905Z,99733.88
2022-12-23T01:23:46.468Z,99746.28
2022-12-23T01:28:47.945Z,99751.13
2022-12-23T01:33:49.458Z,99754.53
2022-12-23T01:38:51.111Z,99742.28
2022-12-23T01:43:52.583Z,99750.63
2022-12-23T01:48:54.093Z,99751.03
2022-12-23T01:53:58.865Z,99754.66
2022-12-23T01:59:02.167Z,99752.31
2022-12-23T02:04:09.155Z,99751.84
2022-12-23T02:09:18.565Z,99748.78
2022-12-23T02:14:57.419Z,99753.72
2022-12-23T02:20:04.132Z,99755.56
2022-12-23T02:25:17.416Z,99759.25
2022-12-23T02:30:27.967Z,99758.50
2022-12-23T02:35:40.903Z,99775.50
2022-12-23T02:40:51.540Z,99774.50
2022-12-23T02:45:55.732Z,99778.09
2022-12-23T02:50:57.222Z,99784.88
2022-12-23T02:55:59.158Z,99781.38
2022-12-23T03:01:00.674Z,99791.66
2022-12-23T03:06:02.655Z,99806.72
2022-12-23T03:11:08.520Z,99803.44
2022-12-23T03:16:25.173Z,99799.44
2022-12-23T03:21:46.528Z,99797.19
2022-12-23T03:27:10.330Z,99801.44
2022-12-23T03:32:12.785Z,99816.03
2022-12-23T03:37:14.662Z,99806.91
2022-12-23T03:42:29.057Z,99814.38
2022-12-23T03:47:33.179Z,99814.28
2022-12-23T03:52:37.610Z,99810.53
2022-12-23T03:57:41.595Z,99813.81
2022-12-23T04:02:53.765Z,99826.63
2022-12-23T04:08:16.270Z,99831.16
2022-12-23T04:13:17.634Z,99838.25
2022-12-23T04:18:19.152Z,99840.13
2022-12-23T04:23:20.643Z,99835.91
2022-12-23T04:28:22.126Z,99851.03
2022-12-23T04:33:23.593Z,99863.50
2022-12-23T04:38:25.072Z,99857.91
2022-12-23T04:43:26.544Z,99867.97
2022-12-23T04:48:28.003Z,99872.13
2022-12-23T04:53:29.538Z,99882.53
2022-12-23T04:58:31.008Z,99884.97
2022-12-23T05:03:32.570Z,99879.53
2022-12-23T05:08:34.233Z,99881.44
2022-12-23T05:13:35.744Z,99897.22
2022-12-23T05:18:37.208Z,99904.59
2022-12-23T05:23:38.803Z,99903.84
2022-12-23T05:28:40.369Z,99894.44
2022-12-23T05:33:41.957Z,99894.19
2022-12-23T05:38:43.487Z,99887.88
2022-12-23T05:43:44.985Z,99894.28
2022-12-23T05:48:46.514Z,99886.63
2022-12-23T05:53:49.003Z,99884.91
2022-12-23T05:58:50.461Z,99897.97
2022-12-23T06:03:52.042Z,99904.25
2022-12-23T06:08:59.398Z,99920.09
2022-12-23T06:14:02.628Z,99915.69
2022-12-23T06:19:04.113Z,99889.25
2022-12-23T06:24:05.916Z,99909.59
2022-12-23T06:29:07.407Z,99903.72
2022-12-23T06:34:08.890Z,99921.94
2022-12-23T06:39:10.576Z,99939.31
2022-12-23T06:44:12.034Z,99933.41
2022-12-23T06:49:14.067Z,99948.78
2022-12-23T06:54:15.707Z,99958.63
2022-12-23T06:59:17.169Z,99962.81
2022-12-23T07:04:18.724Z,99962.59
2022-12-23T07:09:20.196Z,99972.44
2022-12-23T07:14:21.708Z,99988.34
2022-12-23T07:19:23.674Z,99996.41
2022-12-23T07:24:25.158Z,99998.97
2022-12-23T07:29:26.631Z,100006.28
2022-12-23T07:34:28.132Z,100021.63
2022-12-23T07:39:29.654Z,100030.41
2022-12-23T07:44:31.125Z,100033.75
2022-12-23T07:49:32.595Z,100046.00
2022-12-23T07:54:34.108Z,100042.53
2022-12-23T07:59:35.584Z,100035.44
2022-12-23T08:04:42.549Z,100043.88
2022-12-23T08:09:47.191Z,100048.34
2022-12-23T08:14:50.375Z,100052.56
2022-12-23T08:19:51.841Z,100044.28
2022-12-23T08:24:53.373Z,100047.94
2022-12-23T08:29:54.860Z,100051.78
2022-12-23T08:34:57.648Z,100054.06
2022-12-23T08:39:59.142Z,100071.19
2022-12-23T08:45:00.925Z,100069.66
2022-12-23T08:50:02.697Z,100067.44
2022-12-23T08:55:04.233Z,100085.56
2022-12-23T09:00:06.369Z,100085.09
2022-12-23T09:05:08.064Z,100081.84
2022-12-23T09:10:09.673Z,100091.38
2022-12-23T09:15:11.215Z,100078.81
2022-12-23T09:20:12.711Z,100082.56
2022-12-23T09:25:15.615Z,100078.78
2022-12-23T09:30:17.215Z,100086.22
2022-12-23T09:35:18.670Z,100080.94
2022-12-23T09:40:20.565Z,100070.75
2022-12-23T09:45:56.359Z,100071.75
2022-12-23T09:50:57.964Z,100057.56
2022-12-23T09:56:02.204Z,100055.31
2022-12-23T10:01:18.539Z,100061.88
2022-12-23T10:06:22.125Z,100056.16
2022-12-23T10:11:38.026Z,100049.38
2022-12-23T10:16:41.317Z,100040.97
2022-12-23T10:21:48.244Z,100038.63
2022-12-23T10:26:53.999Z,100043.41
2022-12-23T10:32:17.816Z,100040.88
2022-12-23T10:37:31.139Z,100039.91
2022-12-23T10:43:11.773Z,100033.19
2022-12-23T10:48:25.300Z,100023.59
2022-12-23T10:53:43.635Z,100019.72
2022-12-23T10:58:45.993Z,100020.25
2022-12-23T11:04:14.963Z,100031.41
2022-12-23T11:09:24.078Z,100040.22
2022-12-23T11:14:41.437Z,100031.66
2022-12-23T11:19:42.943Z,100030.63
2022-12-23T11:24:44.411Z,100035.19
2022-12-23T11:29:51.832Z,100048.78
2022-12-23T11:34:53.875Z,100032.59
2022-12-23T11:39:55.361Z,100033.06
2022-12-23T11:44:58.222Z,100035.41
2022-12-23T11:50:01.563Z,100041.34
2022-12-23T11:55:04.033Z,100032.38
2022-12-23T12:00:07.163Z,100039.13
2022-12-23T12:05:37.233Z,100025.38
2022-12-23T12:10:39.199Z,100007.88
2022-12-23T12:15:44.753Z,100011.09
2022-12-23T12:20:48.759Z,100000.53
2022-12-23T12:25:52.720Z,99971.25
2022-12-23T12:30:57.857Z,99968.38
2022-12-23T12:36:15.872Z,99969.66
2022-12-23T12:41:22.433Z,99979.28
2022-12-23T12:46:39.672Z,99960.84
2022-12-23T12:51:54.481Z,99962.97
2022-12-23T12:56:56.564Z,99971.66
2022-12-23T13:02:19.628Z,99977.78
2022-12-23T13:07:53.238Z,99961.16
2022-12-23T13:13:03.854Z,99952.06
2022-12-23T13:18:36.505Z,99970.50
2022-12-23T13:23:44.020Z,99966.44
2022-12-23T13:28:59.767Z,99967.97
2022-12-23T13:34:29.454Z,99986.97
2022-12-23T13:39:39.833Z,99973.69
2022-12-23T13:44:41.312Z,99979.56
2022-12-23T13:49:55.263Z,99988.28
2022-12-23T13:54:59.511Z,99988.28
2022-12-23T14:00:06.175Z,99980.25
2022-12-23T14:05:30.558Z,99996.06
2022-12-23T14:10:32.023Z,99979.38
2022-12-23T14:15:47.073Z,99970.69
2022-12-23T14:20:50.855Z,99953.75
2022-12-23T14:26:27.422Z,99949.50
2022-12-23T14:31:40.553Z,99943.09
2022-12-23T14:36:42.125Z,99939.66
2022-12-23T14:41:50.856Z,99949.03
2022-12-23T14:46:53.008Z,99951.91
2022-12-23T14:51:54.487Z,99951.28
2022-12-23T14:57:00.361Z,99949.13
2022-12-23T15:02:03.239Z,99948.97
2022-12-23T15:07:06.629Z,99953.22
2022-12-23T15:12:13.681Z,99958.53
2022-12-23T15:17:28.449Z,99953.28
2022-12-23T15:22:32.931Z,99949.53
2022-12-23T15:27:35.583Z,99952.25
2022-12-23T15:32:37.038Z,99949.81
2022-12-23T15:37:38.507Z,99945.88
2022-12-23T15:42:39.979Z,99938.34
2022-12-23T15:47:42.967Z,99937.91
2022-12-23T15:52:45.426Z,99939.00
2022-12-23T15:57:50.381Z,99940.28
2022-12-23T16:03:02.344Z,99923.28
2022-12-23T16:08:19.353Z,99926.03
2022-12-23T16:13:25.369Z,99918.81
2022-12-23T16:18:31.572Z,99928.94
2022-12-23T16:23:34.709Z,99920.91
2022-12-23T16:28:37.919Z,99918.19
2022-12-23T16:33:43.724Z,99909.81
2022-12-23T16:38:45.214Z,99916.72
2022-12-23T16:43:51.904Z,99918.97
2022-12-23T16:48:55.424Z,99907.25
2022-12-23T16:53:57.391Z,99905.63
2022-12-23T16:58:58.937Z,99906.34
2022-12-23T17:04:00.503Z,99905.41
2022-12-23T17:09:02.126Z,99893.28
2022-12-23T17:14:07.882Z,99900.94
2022-12-23T17:19:12.000Z,99897.03
2022-12-23T17:24:23.744Z,99893.25
2022-12-23T17:29:25.265Z,99889.88
2022-12-23T17:34:26.772Z,99889.88
2022-12-23T17:39:28.234Z,99887.22
2022-12-23T17:44:29.842Z,99887.47
2022-12-23T17:49:31.293Z,99882.56
2022-12-23T17:54:32.805Z,99886.06
2022-12-23T17:59:34.262Z,99894.19
2022-12-23T18:04:35.724Z,99894.03
2022-12-23T18:09:37.334Z,99898.13
2022-12-23T18:14:38.816Z,99905.91
2022-12-23T18:19:40.282Z,99906.34
2022-12-23T18:24:41.897Z,99904.91
2022-12-23T18:29:43.760Z,99911.94
2022-12-23T18:34:45.244Z,99911.75
2022-12-23T18:39:46.761Z,99911.00
2022-12-23T18:44:48.458Z,99899.84
2022-12-23T18:49:49.947Z,99901.50
2022-12-23T18:54:53.344Z,99902.84
2022-12-23T18:59:54.813Z,99924.03
2022-12-23T19:04:56.307Z,99923.28
2022-12-23T19:09:57.782Z,99921.16
2022-12-23T19:14:59.292Z,99921.72
2022-12-23T19:20:00.782Z,99920.19
2022-12-23T19:25:06.760Z,99924.34
2022-12-23T19:30:09.145Z,99928.06
2022-12-23T19:35:13.787Z,99931.81
2022-12-23T19:40:15.260Z,99924.06
2022-12-23T19:45:17.117Z,99920.47
2022-12-23T19:50:19.678Z,99921.38
2022-12-23T19:55:21.166Z,99927.63
2022-12-23T20:00:22.636Z,99930.75
2022-12-23T20:05:24.154Z,99914.38
2022-12-23T20:10:25.639Z,99920.97
2022-12-23T20:15:27.180Z,99920.69
2022-12-23T20:20:28.678Z,99932.94
2022-12-23T20:25:30.180Z,99921.56
2022-12-23T20:30:31.666Z,99928.19
2022-12-23T20:35:33.177Z,99923.19
2022-12-23T20:40:34.648Z,99912.66
2022-12-23T20:45:36.122Z,99913.06
2022-12-23T20:50:39.891Z,99914.84
2022-12-23T20:55:41.408Z,99919.88
2022-12-23T21:00:42.887Z,99918.38
2022-12-23T21:05:44.379Z,99924.63
2022-12-23T21:10:52.555Z,99925.22
2022-12-23T21:15:54.189Z,99930.41
2022-12-23T21:21:02.728Z,99936.59
2022-12-23T21:26:09.266Z,99928.00
2022-12-23T21:31:10.831Z,99930.31
2022-12-23T21:36:19.818Z,99939.72
2022-12-23T21:41:23.417Z,99941.75
2022-12-23T21:46:25.076Z,99942.41
2022-12-23T21:51:33.343Z,99942.31
2022-12-23T21:56:38.443Z,99940.03
2022-12-23T22:01:40.490Z,99941.63
2022-12-23T22:06:44.245Z,99949.53
2022-12-23T22:11:46.256Z,99955.09
2022-12-23T22:16:47.804Z,99961.38
2022-12-23T22:21:49.399Z,99966.00
2022-12-23T22:26:50.887Z,99962.47
2022-12-23T22:31:53.217Z,99963.69
2022-12-23T22:36:54.844Z,99961.66
2022-12-23T22:41:56.323Z,99964.97
2022-12-23T22:46:57.779Z,99971.25
2022-12-23T22:51:59.266Z,99962.28
2022-12-23T22:57:00.736Z,99973.75
2022-12-23T23:02:02.215Z,99970.38
2022-12-23T23:07:03.739Z,99966.38
2022-12-23T23:12:05.338Z,99967.66
2022-12-23T23:17:06.924Z,99963.81
2022-12-23T23:22:08.413Z,99959.31
2022-12-23T23:27:09.933Z,99965.59
2022-12-23T23:32:11.516Z,99969.06
2022-12-23T23:37:14.150Z,99971.63
2022-12-23T23:42:17.774Z,99963.94
2022-12-23T23:47:19.291Z,99958.50
2022-12-23T23:52:20.775Z,99969.22
2022-12-23T23:57:22.228Z,99977.66
